Time;durP1;ratioP1;P1;durP2;ratioP2;P2;SDS_P1;SDS_P2;PMS_P1;PMS_P2;Temp;Humidity;BMP_temperature;BMP_pressure;BME280_temperature;BME280_humidity;BME280_pressure;Samples;Min_cycle;Max_cycle;Signal;HPM_P1;HPM_P2
2022/05/16 00:02:05;;;;;;;0.80;0.80;;;20.20;99.90;20.60;101212.00;;;;5051403;28;20238;-69
2022/05/16 00:04:31;;;;;;;0.30;0.30;;;20.10;99.90;20.30;101224.00;;;;5051006;28;20176;-69
2022/05/16 00:06:57;;;;;;;0.10;0.10;;;20.00;99.90;21.00;101218.00;;;;5034722;28;20179;-69
2022/05/16 00:09:23;;;;;;;0.30;0.30;;;20.10;99.90;20.80;101211.00;;;;5051052;28;20224;-69
2022/05/16 00:11:49;;;;;;;0.30;0.30;;;20.10;99.90;20.70;101233.00;;;;5035514;28;20209;-69
2022/05/16 00:14:15;;;;;;;0.47;0.47;;;20.00;99.90;20.30;101221.00;;;;5050840;28;20184;-69
2022/05/16 00:16:41;;;;;;;0.33;0.33;;;19.90;99.90;20.20;101218.00;;;;5051178;28;20166;-69
2022/05/16 00:19:07;;;;;;;0.10;0.10;;;19.90;99.90;20.50;101208.00;;;;5050915;28;20269;-69
2022/05/16 00:21:33;;;;;;;0.10;0.10;;;19.90;99.90;20.40;101204.00;;;;5051220;28;20238;-69
2022/05/16 00:23:59;;;;;;;0.13;0.13;;;20.00;99.90;20.20;101178.00;;;;5033804;28;20184;-69
2022/05/16 00:26:27;;;;;;;0.47;0.47;;;19.90;99.90;20.30;101199.00;;;;5035391;28;20176;-68
2022/05/16 00:28:53;;;;;;;0.10;0.10;;;19.80;99.90;20.30;101210.00;;;;5050741;28;20180;-68
2022/05/16 00:31:18;;;;;;;0.37;0.37;;;19.70;99.90;19.80;101185.00;;;;5035231;28;20267;-68
2022/05/16 00:33:44;;;;;;;0.10;0.10;;;19.60;99.90;19.70;101175.00;;;;5050632;28;20703;-69
2022/05/16 00:36:10;;;;;;;0.10;0.10;;;19.50;99.90;20.00;101183.00;;;;5035270;28;20182;-69
2022/05/16 00:38:36;;;;;;;0.30;0.30;;;19.50;99.90;19.90;101188.00;;;;5050312;28;20180;-70
2022/05/16 00:41:04;;;;;;;0.10;0.10;;;19.50;99.90;20.10;101187.00;;;;5050334;28;20213;-69
2022/05/16 00:43:59;;;;;;;0.20;0.20;;;19.60;99.90;20.30;101188.00;;;;5034065;28;20217;-69
2022/05/16 00:46:31;;;;;;;0.10;0.10;;;19.70;99.90;20.50;101176.00;;;;5050544;28;20207;-69
2022/05/16 00:48:59;;;;;;;0.10;0.10;;;19.70;99.90;20.50;101177.00;;;;5050090;28;20160;-69
2022/05/16 00:52:17;;;;;;;0.10;0.10;;;19.80;99.90;20.50;101168.00;;;;5050434;28;20230;-69
2022/05/16 00:54:51;;;;;;;0.10;0.10;;;19.90;99.90;20.60;101176.00;;;;5032087;28;20582;-69
2022/05/16 00:57:24;;;;;;;0.17;0.17;;;19.80;99.90;20.20;101173.00;;;;5050005;28;20271;-69
2022/05/16 01:00:04;;;;;;;0.10;0.10;;;19.90;99.90;20.40;101175.00;;;;5033467;28;20209;-69
2022/05/16 01:05:18;;;;;;;0.10;0.10;;;19.60;99.90;20.50;101154.00;;;;5047992;28;20643;-69
2022/05/16 01:07:47;;;;;;;0.10;0.10;;;19.80;99.90;20.00;101149.00;;;;5049892;28;20209;-68
2022/05/16 01:10:20;;;;;;;0.20;0.20;;;19.60;99.90;20.10;101151.00;;;;5034435;28;20215;-69
2022/05/16 01:12:50;;;;;;;0.10;0.10;;;19.50;99.90;20.40;101105.00;;;;5034652;28;20683;-69
2022/05/16 01:15:42;;;;;;;0.53;0.40;;;19.60;99.90;20.20;101143.00;;;;5033238;28;20182;-69
2022/05/16 01:18:11;;;;;;;0.33;0.33;;;19.70;99.90;20.20;101142.00;;;;5033117;28;20237;-69
2022/05/16 01:21:04;;;;;;;12.53;1.90;;;19.50;99.90;19.80;101137.00;;;;5049849;28;20187;-69
2022/05/16 01:23:47;;;;;;;0.37;0.37;;;19.40;99.90;19.60;101138.00;;;;5034568;28;20173;-69
2022/05/16 01:26:19;;;;;;;0.10;0.10;;;19.30;99.90;19.90;101154.00;;;;5049106;28;20752;-69
2022/05/16 01:28:46;;;;;;;0.50;0.50;;;19.30;99.90;20.00;101155.00;;;;5033001;28;20186;-69
2022/05/16 01:31:12;;;;;;;0.10;0.10;;;19.40;99.90;19.90;101159.00;;;;5049378;28;20220;-69
2022/05/16 01:33:38;;;;;;;0.10;0.10;;;19.40;99.90;19.60;101139.00;;;;5049674;28;20225;-70
2022/05/16 01:36:05;;;;;;;1.43;1.33;;;19.30;99.90;19.80;101120.00;;;;5049663;28;20177;-70
2022/05/16 01:38:31;;;;;;;0.10;0.10;;;19.30;99.90;19.60;101129.00;;;;5049215;28;20175;-69
2022/05/16 01:41:02;;;;;;;0.20;0.20;;;19.30;99.90;19.70;101102.00;;;;5049388;28;20590;-69
2022/05/16 01:43:36;;;;;;;0.57;0.57;;;19.30;99.90;19.60;101135.00;;;;5049321;28;20184;-69
2022/05/16 01:46:03;;;;;;;0.13;0.13;;;19.30;99.90;19.90;101112.00;;;;5049331;28;20171;-69
2022/05/16 01:48:30;;;;;;;0.40;0.40;;;19.40;99.90;19.90;101141.00;;;;5033066;28;20165;-69
2022/05/16 01:51:14;;;;;;;0.57;0.50;;;19.40;99.90;19.40;101103.00;;;;5048969;28;20266;-68
2022/05/16 01:53:42;;;;;;;0.10;0.10;;;19.30;99.90;19.50;101117.00;;;;5033697;28;20179;-68
2022/05/16 01:56:08;;;;;;;0.30;0.30;;;19.20;99.90;19.60;101134.00;;;;5049206;28;20177;-68
2022/05/16 01:58:34;;;;;;;0.20;0.20;;;19.30;99.90;19.60;101134.00;;;;5049365;28;20185;-68
2022/05/16 02:01:00;;;;;;;0.10;0.10;;;19.30;99.90;19.50;101105.00;;;;5048898;28;20246;-68
2022/05/16 02:03:26;;;;;;;0.20;0.20;;;19.20;99.90;19.50;101107.00;;;;5049183;28;20178;-69
2022/05/16 02:05:52;;;;;;;0.20;0.20;;;19.20;99.90;19.40;101109.00;;;;5048409;28;20200;-69
2022/05/16 02:08:18;;;;;;;0.20;0.20;;;19.10;99.90;19.20;101091.00;;;;5033583;28;20201;-69
2022/05/16 02:10:46;;;;;;;0.10;0.10;;;19.00;99.90;19.30;101084.00;;;;5049031;28;20168;-69
2022/05/16 02:13:12;;;;;;;0.30;0.30;;;19.00;99.90;19.30;101092.00;;;;5049078;28;20208;-69
2022/05/16 02:15:41;;;;;;;0.23;0.23;;;19.00;99.90;19.10;101079.00;;;;5033496;28;20223;-69
2022/05/16 02:18:08;;;;;;;0.23;0.17;;;18.90;99.90;19.00;101081.00;;;;5048774;28;20186;-69
2022/05/16 02:20:35;;;;;;;0.10;0.10;;;18.90;99.90;19.20;101083.00;;;;5032006;28;20643;-69
2022/05/16 02:25:50;;;;;;;0.30;0.30;;;18.90;99.90;19.30;101082.00;;;;5046508;28;20189;-69
2022/05/16 02:28:19;;;;;;;0.10;0.10;;;18.90;99.90;19.20;101079.00;;;;5032396;28;20189;-69
2022/05/16 02:30:46;;;;;;;0.20;0.20;;;18.80;99.90;19.20;101053.00;;;;5032818;28;20184;-69
2022/05/16 02:33:14;;;;;;;0.20;0.20;;;18.80;99.90;18.70;101067.00;;;;5048587;28;20271;-68
2022/05/16 02:35:41;;;;;;;1.60;1.17;;;18.70;99.90;18.70;101055.00;;;;5048647;28;20584;-68
2022/05/16 02:38:08;;;;;;;0.10;0.10;;;18.60;99.90;18.90;101063.00;;;;5048417;28;20189;-69
2022/05/16 02:40:36;;;;;;;0.20;0.20;;;18.60;99.90;18.80;101029.00;;;;5032016;28;20212;-69
2022/05/16 02:43:02;;;;;;;0.10;0.10;;;18.60;99.90;18.90;101059.00;;;;5031804;28;20187;-69
2022/05/16 02:45:31;;;;;;;0.53;0.53;;;18.60;99.90;18.80;101027.00;;;;5033203;28;20187;-69
2022/05/16 02:47:57;;;;;;;0.20;0.20;;;18.60;99.90;19.20;101066.00;;;;5048468;28;20185;-69
2022/05/16 02:50:25;;;;;;;0.10;0.10;;;18.70;99.90;19.10;101056.00;;;;5033179;28;20167;-69
2022/05/16 02:52:52;;;;;;;0.13;0.13;;;18.80;99.90;18.90;101068.00;;;;5031479;28;20202;-69
2022/05/16 02:55:19;;;;;;;0.33;0.33;;;18.70;99.90;18.70;101055.00;;;;5032002;28;20179;-69
2022/05/16 02:57:45;;;;;;;19.53;4.27;;;18.70;99.90;19.00;101069.00;;;;5048312;28;20221;-69
2022/05/16 03:00:13;;;;;;;26.77;2.50;;;18.80;99.90;18.90;101055.00;;;;5048313;28;20217;-69
2022/05/16 03:02:39;;;;;;;0.10;0.10;;;18.80;99.90;18.90;101056.00;;;;5048206;28;20180;-69
2022/05/16 03:05:07;;;;;;;0.20;0.20;;;18.80;99.90;19.00;101060.00;;;;5048770;28;20218;-69
2022/05/16 03:07:34;;;;;;;0.50;0.50;;;18.90;99.90;19.00;101063.00;;;;5048140;28;20184;-69
2022/05/16 03:09:59;;;;;;;0.20;0.20;;;18.90;99.90;19.00;101056.00;;;;5048455;28;20306;-69
2022/05/16 03:12:25;;;;;;;0.43;0.43;;;18.90;99.90;19.40;101066.00;;;;5048091;28;20757;-69
2022/05/16 03:14:51;;;;;;;0.17;0.17;;;19.00;99.90;19.30;101055.00;;;;5033112;28;20199;-69
2022/05/16 03:17:17;;;;;;;0.50;0.50;;;19.10;99.90;19.40;101063.00;;;;5033004;28;20645;-69
2022/05/16 03:19:43;;;;;;;0.13;0.13;;;19.10;99.90;19.40;101035.00;;;;5051740;28;20180;-69
2022/05/16 03:22:08;;;;;;;0.10;0.10;;;19.10;99.90;19.20;101064.00;;;;5051746;28;20180;-68
2022/05/16 03:24:36;;;;;;;0.30;0.30;;;19.10;99.90;19.30;101034.00;;;;5052119;28;20708;-69
2022/05/16 03:27:03;;;;;;;0.10;0.10;;;19.10;99.90;19.30;101064.00;;;;5051744;28;20181;-70
2022/05/16 03:29:29;;;;;;;1.20;0.57;;;19.10;99.90;19.30;101033.00;;;;5036405;28;20607;-70
2022/05/16 03:31:55;;;;;;;0.10;0.10;;;19.00;99.90;19.40;101029.00;;;;5034872;28;20218;-68
2022/05/16 03:34:21;;;;;;;0.20;0.20;;;19.20;99.90;19.20;101060.00;;;;5052285;28;20196;-70
2022/05/16 03:36:50;;;;;;;0.83;0.67;;;19.10;99.90;19.30;101059.00;;;;5034990;28;20551;-69
2022/05/16 03:42:00;;;;;;;0.47;0.47;;;19.20;99.90;19.60;101050.00;;;;5035920;28;20234;-69
2022/05/16 03:44:29;;;;;;;0.13;0.13;;;19.20;99.90;19.70;101064.00;;;;5036501;28;20176;-69
2022/05/16 03:46:54;;;;;;;0.10;0.10;;;19.30;99.90;19.70;101056.00;;;;5036277;28;20204;-69
2022/05/16 03:49:20;;;;;;;0.43;0.30;;;19.30;99.90;19.40;101023.00;;;;5051097;28;20196;-69
2022/05/16 03:51:46;;;;;;;0.20;0.20;;;19.30;99.90;19.60;101057.00;;;;5051516;28;20673;-69
2022/05/16 03:54:12;;;;;;;0.20;0.20;;;19.30;99.90;20.00;101032.00;;;;5045002;28;20184;-69
2022/05/16 03:56:38;;;;;;;0.60;0.60;;;19.40;99.90;19.90;101061.00;;;;5015226;28;20264;-69
2022/05/16 03:59:04;;;;;;;0.10;0.10;;;19.50;99.90;19.70;101051.00;;;;5014953;28;20177;-69
2022/05/16 04:01:30;;;;;;;0.17;0.17;;;19.40;99.90;19.30;101032.00;;;;5015010;28;20238;-69
2022/05/16 04:03:56;;;;;;;0.10;0.10;;;19.20;99.90;19.80;101046.00;;;;5015540;28;20180;-69
2022/05/16 04:06:22;;;;;;;0.10;0.10;;;19.30;99.90;19.70;101042.00;;;;5014907;28;20593;-69
2022/05/16 04:08:48;;;;;;;0.20;0.20;;;19.40;99.90;19.20;101047.00;;;;5014317;28;20188;-70
2022/05/16 04:11:16;;;;;;;0.10;0.10;;;19.30;99.90;19.20;101050.00;;;;5014623;28;20593;-69
2022/05/16 04:13:43;;;;;;;0.20;0.20;;;19.10;99.90;19.30;101050.00;;;;5014668;28;20197;-69
2022/05/16 04:16:09;;;;;;;0.10;0.10;;;19.20;99.90;19.20;101047.00;;;;5015952;28;20185;-69
2022/05/16 04:18:36;;;;;;;0.10;0.10;;;19.20;99.90;19.30;101058.00;;;;5015572;28;20185;-68
2022/05/16 04:21:04;;;;;;;0.20;0.20;;;19.30;99.90;19.30;101058.00;;;;4998391;28;20190;-69
2022/05/16 04:23:30;;;;;;;0.20;0.20;;;19.30;99.90;19.20;101067.00;;;;5015736;28;20178;-69
2022/05/16 04:25:58;;;;;;;0.20;0.20;;;19.30;99.90;19.50;101080.00;;;;5014456;28;20178;-69
2022/05/16 04:28:24;;;;;;;0.10;0.10;;;19.40;99.90;19.70;101082.00;;;;5014485;28;20176;-69
2022/05/16 04:30:50;;;;;;;0.50;0.50;;;19.50;99.90;19.40;101084.00;;;;5014296;28;20172;-69
2022/05/16 04:33:18;;;;;;;0.40;0.40;;;19.50;99.90;19.40;101082.00;;;;5013896;28;20240;-69
2022/05/16 04:35:44;;;;;;;4.37;0.30;;;19.50;99.90;19.20;101093.00;;;;5014388;28;20178;-69
2022/05/16 04:38:10;;;;;;;0.35;0.35;;;19.40;99.90;19.40;101084.00;;;;5015096;28;20279;-69
2022/05/16 04:42:40;;;;;;;0.40;0.40;;;19.40;99.90;19.40;101082.00;;;;5015361;28;20550;-69
2022/05/16 04:43:21;;;;;;;0.10;0.10;;;19.40;99.90;19.30;101047.00;;;;5014226;28;20197;-69
2022/05/16 04:45:47;;;;;;;0.40;0.40;;;19.40;99.90;19.30;101037.00;;;;5014245;28;20652;-69
2022/05/16 04:48:13;;;;;;;0.20;0.20;;;19.40;99.90;19.30;101090.00;;;;5014887;28;20189;-69
2022/05/16 04:50:39;;;;;;;0.10;0.10;;;19.40;99.90;19.20;101075.00;;;;5015007;28;20547;-69
2022/05/16 04:53:05;;;;;;;0.30;0.30;;;19.40;99.90;19.40;101048.00;;;;5014080;28;20304;-69
2022/05/16 04:55:31;;;;;;;0.10;0.10;;;19.40;99.90;19.40;101096.00;;;;5014020;28;20260;-69
2022/05/16 04:57:58;;;;;;;0.50;0.40;;;19.40;99.90;19.50;101108.00;;;;5013931;28;20179;-69
2022/05/16 05:00:25;;;;;;;0.10;0.10;;;19.50;99.90;19.60;101119.00;;;;5013788;28;20236;-69
2022/05/16 05:02:51;;;;;;;0.10;0.10;;;19.50;99.90;19.40;101115.00;;;;4997023;28;20210;-69
2022/05/16 05:05:18;;;;;;;0.10;0.10;;;19.50;99.90;19.40;101114.00;;;;5013560;28;20204;-69
2022/05/16 05:07:45;;;;;;;0.10;0.10;;;19.50;99.90;19.60;101122.00;;;;5014083;28;20185;-69
2022/05/16 05:15:45;;;;;;;0.20;0.20;;;19.70;99.90;19.80;101143.00;;;;5014575;28;20556;-70
2022/05/16 05:18:11;;;;;;;0.55;0.55;;;19.70;99.90;19.50;101141.00;;;;5013371;28;20182;-69
2022/05/16 05:20:37;;;;;;;0.25;0.25;;;19.60;99.90;19.60;101109.00;;;;5013406;28;20190;-70
2022/05/16 05:23:04;;;;;;;0.20;0.20;;;19.50;99.90;19.60;101145.00;;;;5013463;28;20182;-70
2022/05/16 05:25:31;;;;;;;0.20;0.20;;;19.60;99.90;19.90;101151.00;;;;5014510;28;20182;-70
2022/05/16 05:28:04;;;;;;;0.40;0.40;;;19.70;99.90;19.90;101153.00;;;;5013439;28;20177;-67
2022/05/16 05:30:32;;;;;;;0.40;0.40;;;19.80;99.90;20.00;101159.00;;;;4996997;28;20181;-68
2022/05/16 05:32:58;;;;;;;0.10;0.10;;;19.90;99.90;20.00;101160.00;;;;5014555;28;20612;-68
2022/05/16 05:35:24;;;;;;;0.37;0.37;;;20.00;99.90;20.20;101161.00;;;;5013264;28;20179;-68
2022/05/16 05:37:51;;;;;;;0.15;0.15;;;20.10;99.90;20.20;101160.00;;;;5013397;28;20182;-69
2022/05/16 05:40:17;;;;;;;0.22;0.22;;;20.10;99.90;20.60;101144.00;;;;5012753;28;20186;-69
2022/05/16 05:42:43;;;;;;;0.32;0.32;;;20.30;99.90;21.90;101184.00;;;;5012703;28;20180;-69
2022/05/16 05:45:10;;;;;;;0.10;0.10;;;21.10;99.90;22.90;101223.00;;;;5012526;28;20529;-69
2022/05/16 05:47:36;;;;;;;0.10;0.10;;;22.10;99.90;22.80;101220.00;;;;5014437;28;20180;-69
2022/05/16 05:50:04;;;;;;;0.10;0.10;;;22.40;99.90;23.40;101233.00;;;;5012998;28;20258;-69
2022/05/16 05:52:30;;;;;;;0.10;0.10;;;22.60;99.90;22.30;101237.00;;;;5012729;28;20721;-69
2022/05/16 05:55:01;;;;;;;0.80;0.57;;;22.20;99.90;21.70;101228.00;;;;5012701;28;20279;-69
2022/05/16 05:57:27;;;;;;;0.20;0.20;;;21.80;99.90;21.00;101201.00;;;;5012875;28;20183;-69
2022/05/16 05:59:55;;;;;;;0.90;0.40;;;21.30;99.90;21.20;101178.00;;;;5013699;28;20179;-69
2022/05/16 06:02:21;;;;;;;0.10;0.10;;;21.10;99.90;21.10;101204.00;;;;5012587;28;20741;-69
2022/05/16 06:04:47;;;;;;;1.23;0.75;;;20.90;99.90;21.00;101196.00;;;;4996378;28;20179;-70
2022/05/16 06:07:14;;;;;;;0.25;0.25;;;20.90;99.90;21.90;101203.00;;;;5012382;28;20175;-71
2022/05/16 06:09:41;;;;;;;0.10;0.10;;;21.50;99.90;22.70;101220.00;;;;5012631;28;20218;-71
2022/05/16 06:12:08;;;;;;;0.10;0.10;;;22.30;99.90;23.00;101228.00;;;;5013885;28;20206;-70
2022/05/16 06:14:37;;;;;;;0.10;0.10;;;22.80;99.90;24.00;101257.00;;;;5012535;28;20515;-70
2022/05/16 06:17:04;;;;;;;0.20;0.20;;;23.60;99.90;24.10;101239.00;;;;5012499;28;20179;-70
2022/05/16 06:19:30;;;;;;;0.10;0.10;;;24.00;99.90;26.10;101260.00;;;;5012560;28;20211;-70
2022/05/16 06:21:56;;;;;;;0.10;0.10;;;25.10;99.90;28.30;101294.00;;;;5012362;28;20257;-70
2022/05/16 06:27:08;;;;;;;0.13;0.13;;;26.10;99.90;26.20;101268.00;;;;5012767;28;20222;-70
2022/05/16 06:29:33;;;;;;;0.20;0.20;;;26.00;99.90;26.20;101295.00;;;;5013583;28;20180;-70
2022/05/16 06:31:59;;;;;;;0.20;0.20;;;26.60;99.90;25.70;101292.00;;;;5013401;28;20211;-70
2022/05/16 06:34:25;;;;;;;0.20;0.20;;;25.90;99.90;25.50;101291.00;;;;5013552;28;20631;-70
2022/05/16 06:36:51;;;;;;;1.25;0.38;;;25.70;99.90;24.00;101256.00;;;;5013366;28;20259;-70
2022/05/16 06:39:17;;;;;;;0.20;0.20;;;24.60;99.90;24.40;101288.00;;;;5012555;28;20171;-70
2022/05/16 06:41:44;;;;;;;0.50;0.50;;;24.30;99.90;24.30;101293.00;;;;5012106;28;20265;-70
2022/05/16 06:44:14;;;;;;;0.10;0.10;;;24.30;99.90;24.30;101296.00;;;;4995923;28;20182;-70
2022/05/16 06:46:41;;;;;;;28.27;8.30;;;24.40;99.90;23.90;101297.00;;;;5013353;28;20534;-70
2022/05/16 06:49:07;;;;;;;0.17;0.17;;;24.10;99.90;26.30;101289.00;;;;5012395;28;20183;-70
2022/05/16 06:51:33;;;;;;;0.10;0.10;;;25.00;99.90;26.00;101323.00;;;;5012138;28;20211;-71
2022/05/16 06:54:03;;;;;;;0.10;0.10;;;25.60;99.90;25.40;101287.00;;;;5014392;28;20684;-70
2022/05/16 06:56:29;;;;;;;0.10;0.10;;;25.60;99.90;24.60;101311.00;;;;5016057;28;20167;-70
2022/05/16 06:58:55;;;;;;;0.32;0.32;;;24.90;99.90;25.30;101309.00;;;;5016006;28;20179;-70
2022/05/16 07:01:21;;;;;;;0.10;0.10;;;25.00;99.90;24.40;101284.00;;;;4999292;28;20195;-70
2022/05/16 07:03:47;;;;;;;0.10;0.10;;;24.50;99.90;25.40;101318.00;;;;5016004;28;20545;-70
2022/05/16 07:06:14;;;;;;;0.10;0.10;;;24.60;99.90;25.50;101323.00;;;;4999672;28;20191;-70
2022/05/16 07:08:41;;;;;;;0.30;0.30;;;25.00;99.90;24.50;101305.00;;;;5015842;28;20635;-69
2022/05/16 07:11:09;;;;;;;0.10;0.10;;;24.60;99.90;25.30;101318.00;;;;5016836;28;20510;-69
2022/05/16 07:13:36;;;;;;;0.70;0.70;;;24.60;99.90;24.10;101304.00;;;;5015392;28;20587;-69
2022/05/16 07:16:03;;;;;;;0.20;0.20;;;24.20;99.90;23.70;101287.00;;;;5016943;28;20193;-69
2022/05/16 07:18:29;;;;;;;0.10;0.10;;;23.90;99.90;23.00;101263.00;;;;5015485;28;20175;-70
2022/05/16 07:20:59;;;;;;;0.10;0.10;;;23.20;99.90;24.30;101287.00;;;;5017143;28;20175;-70
2022/05/16 07:23:26;;;;;;;0.10;0.10;;;23.40;99.90;24.80;101294.00;;;;5015413;28;20179;-69
2022/05/16 07:28:42;;;;;;;0.25;0.25;;;24.90;99.90;28.20;101316.00;;;;5015518;28;20187;-70
2022/05/16 07:31:08;;;;;;;0.20;0.20;;;26.40;99.90;27.60;101325.00;;;;5016178;28;20529;-70
2022/05/16 07:33:35;;;;;;;0.10;0.10;;;27.40;99.90;29.30;101312.00;;;;5015496;28;20171;-70
2022/05/16 07:36:01;;;;;;;0.52;0.52;;;28.30;99.90;30.20;101339.00;;;;5015277;28;20682;-70
2022/05/16 07:38:27;;;;;;;0.10;0.10;;;29.40;99.90;31.80;101310.00;;;;5015263;28;20183;-70
2022/05/16 07:40:54;;;;;;;0.10;0.10;;;30.70;99.90;30.30;101341.00;;;;5015463;28;20179;-70
2022/05/16 07:43:21;;;;;;;0.45;0.40;;;30.40;99.90;27.50;101348.00;;;;5015098;28;20225;-70
2022/05/16 07:45:47;;;;;;;1.00;0.82;;;28.80;99.90;25.70;101342.00;;;;5015557;28;20180;-70
2022/05/16 07:48:14;;;;;;;1.20;0.73;;;26.90;99.90;25.60;101337.00;;;;5015197;28;20191;-70
2022/05/16 07:50:42;;;;;;;0.32;0.32;;;26.10;99.90;26.50;101357.00;;;;5015251;28;20167;-70
2022/05/16 07:53:13;;;;;;;0.55;0.55;;;25.80;99.90;26.00;101347.00;;;;5014947;28;20577;-70
2022/05/16 07:55:42;;;;;;;0.10;0.10;;;25.90;99.90;27.60;101368.00;;;;5014947;28;20184;-70
2022/05/16 07:58:08;;;;;;;0.20;0.20;;;26.80;99.90;25.20;101350.00;;;;5014915;28;20207;-70
2022/05/16 08:00:34;;;;;;;0.70;0.70;;;25.90;99.90;25.20;101360.00;;;;5014917;28;20179;-70
2022/05/16 08:03:01;;;;;;;1.85;0.88;;;25.50;99.90;23.50;101328.00;;;;5014606;28;20546;-70
2022/05/16 08:05:28;;;;;;;0.20;0.20;;;24.20;99.90;24.60;101322.00;;;;5014390;28;20639;-69
2022/05/16 08:10:39;;;;;;;0.80;0.60;;;24.60;99.90;26.00;101346.00;;;;5014627;28;20202;-70
2022/05/16 08:13:09;;;;;;;1.08;1.08;;;25.20;99.90;25.70;101364.00;;;;5014672;28;20204;-69
2022/05/16 08:15:41;;;;;;;0.70;0.70;;;25.60;99.90;25.60;101365.00;;;;4998438;28;20190;-69
2022/05/16 08:18:10;;;;;;;2.55;0.57;;;25.20;99.90;24.00;101351.00;;;;5014712;28;20184;-69
2022/05/16 08:20:39;;;;;;;1.30;1.20;;;24.70;99.90;23.50;101322.00;;;;4998374;28;20179;-69
2022/05/16 08:23:05;;;;;;;0.88;0.85;;;24.00;99.90;22.80;101290.00;;;;5015510;28;20183;-70
2022/05/16 08:25:32;;;;;;;0.63;0.55;;;23.30;99.90;22.10;101266.00;;;;5014628;28;20274;-69
2022/05/16 08:27:58;;;;;;;0.30;0.30;;;22.70;99.90;22.70;101270.00;;;;5014448;28;20179;-69
2022/05/16 08:30:25;;;;;;;2.58;0.75;;;22.70;99.90;23.00;101293.00;;;;4998027;28;20271;-69
2022/05/16 08:32:52;;;;;;;0.25;0.25;;;22.90;99.90;22.20;101294.00;;;;5014218;28;20284;-69
2022/05/16 08:35:19;;;;;;;0.32;0.32;;;22.40;99.90;22.20;101292.00;;;;5014147;28;20266;-69
2022/05/16 08:41:06;;;;;;;1.90;1.75;;;22.40;99.90;22.50;101295.00;;;;5014860;28;20237;-69
2022/05/16 08:43:57;;;;;;;1.48;1.27;;;22.50;99.90;22.20;101272.00;;;;5014068;28;20271;-69
2022/05/16 08:46:32;;;;;;;0.38;0.38;;;22.60;99.90;22.40;101308.00;;;;5015072;28;20176;-69
2022/05/16 08:49:16;;;;;;;1.50;1.40;;;22.90;99.90;22.20;101301.00;;;;5013886;28;20194;-69
2022/05/16 08:51:50;;;;;;;0.43;0.43;;;22.70;99.90;24.10;101331.00;;;;5013944;28;20692;-69
2022/05/16 08:54:42;;;;;;;0.63;0.63;;;23.50;99.90;23.80;101348.00;;;;4997348;28;20186;-69
2022/05/16 08:57:25;;;;;;;2.55;0.85;;;24.20;99.90;24.10;101367.00;;;;5014089;28;20210;-69
2022/05/16 09:00:06;;;;;;;0.85;0.85;;;24.30;99.90;23.90;101352.00;;;;5013710;28;20183;-69
2022/05/16 09:02:34;;;;;;;1.23;1.02;;;24.20;99.90;23.20;101300.00;;;;5013681;28;20229;-69
2022/05/16 09:05:28;;;;;;;13.02;1.75;;;23.70;99.90;23.20;101331.00;;;;5014190;28;20205;-69
2022/05/16 09:07:57;;;;;;;1.58;1.48;;;23.40;99.90;22.50;101342.00;;;;5014127;28;20325;-69
2022/05/16 09:10:35;;;;;;;2.33;2.10;;;22.90;99.90;22.70;101341.00;;;;5013352;28;20280;-69
2022/05/16 09:13:19;;;;;;;1.15;1.15;;;22.90;99.90;23.00;101318.00;;;;5013412;28;20237;-70
2022/05/16 09:16:23;;;;;;;6.05;2.25;;;23.10;99.90;22.70;101348.00;;;;5014039;28;20650;-69
2022/05/16 09:19:10;;;;;;;0.20;0.20;;;23.10;99.90;22.50;101345.00;;;;5014701;28;20168;-69
2022/05/16 09:22:03;;;;;;;1.83;1.15;;;22.90;99.90;22.70;101361.00;;;;5014505;28;20183;-69
2022/05/16 09:24:46;;;;;;;5.43;1.23;;;22.80;99.90;22.60;101361.00;;;;5014385;28;20176;-69
2022/05/16 09:30:27;;;;;;;9.15;2.28;;;23.00;99.90;22.40;101342.00;;;;4999905;28;20274;-69
2022/05/16 09:33:13;;;;;;;2.72;2.05;;;22.80;99.90;21.40;101332.00;;;;5013084;28;20203;-69
2022/05/16 09:36:05;;;;;;;6.22;2.28;;;22.10;99.90;22.10;101369.00;;;;5013529;28;20167;-69
2022/05/16 09:38:32;;;;;;;1.65;0.93;;;22.20;99.90;21.80;101375.00;;;;5012875;28;20183;-69
2022/05/16 09:41:10;;;;;;;1.58;1.48;;;22.20;99.90;21.80;101384.00;;;;5013444;28;20227;-69
2022/05/16 09:44:06;;;;;;;2.95;1.50;;;22.30;99.90;21.80;101387.00;;;;4996470;28;20191;-69
2022/05/16 09:46:37;;;;;;;5.22;3.38;;;22.20;99.90;21.60;101394.00;;;;5012663;28;20647;-69
2022/05/16 09:49:13;;;;;;;4.28;3.15;;;22.00;99.90;21.60;101398.00;;;;5014187;28;20184;-69
2022/05/16 09:51:59;;;;;;;6.65;2.63;;;21.80;99.90;21.00;101361.00;;;;5012693;28;20199;-69
2022/05/16 09:54:35;;;;;;;2.22;2.10;;;21.40;99.90;20.90;101403.00;;;;5013039;28;20233;-69
2022/05/16 09:57:12;;;;;;;2.20;1.67;;;21.20;99.90;20.80;101407.00;;;;5013009;28;20270;-70
2022/05/16 10:00:19;;;;;;;7.68;3.78;;;21.20;99.90;20.70;101405.00;;;;5012821;28;20217;-70
2022/05/16 10:02:57;;;;;;;2.58;1.80;;;21.10;99.90;20.50;101390.00;;;;5014049;28;20182;-70
2022/05/16 10:05:31;;;;;;;4.80;2.35;;;20.90;99.90;20.70;101431.00;;;;5012541;28;20239;-70
2022/05/16 10:08:11;;;;;;;4.43;3.17;;;21.10;99.90;20.60;101426.00;;;;5012426;28;20224;-70
2022/05/16 10:10:41;;;;;;;3.58;3.15;;;20.90;99.90;20.20;101420.00;;;;5012469;28;20186;-70
2022/05/16 10:13:07;;;;;;;3.72;2.25;;;20.70;99.90;20.30;101436.00;;;;5012635;28;20249;-70
2022/05/16 10:15:35;;;;;;;3.35;3.05;;;20.80;99.90;20.50;101436.00;;;;5013591;28;20205;-70
2022/05/16 10:18:07;;;;;;;7.70;4.95;;;20.90;99.90;20.50;101445.00;;;;5012771;28;20190;-70
2022/05/16 10:33:27;;;;;;;2.72;2.03;;;21.50;99.90;21.30;101460.00;;;;5114046;27;1300873;-69
2022/05/16 10:36:16;;;;;;;17.00;6.32;;;21.60;99.90;21.60;101463.00;;;;5116021;28;20203;-69
2022/05/16 10:39:03;;;;;;;3.20;2.67;;;21.90;99.90;21.80;101460.00;;;;5130721;28;20243;-69
2022/05/16 10:41:40;;;;;;;1.77;1.55;;;22.10;99.90;22.00;101467.00;;;;5113335;28;20178;-69
2022/05/16 10:44:43;;;;;;;4.35;3.83;;;22.20;99.90;22.10;101484.00;;;;5130522;28;20579;-68
2022/05/16 10:47:31;;;;;;;5.38;3.70;;;22.50;99.90;21.90;101479.00;;;;5113211;28;20182;-68
2022/05/16 10:50:03;;;;;;;3.55;2.65;;;22.50;99.90;22.60;101474.00;;;;5130052;28;20526;-68
2022/05/16 10:53:10;;;;;;;3.03;2.30;;;22.60;99.90;22.70;101500.00;;;;5130039;28;20658;-68
2022/05/16 10:56:00;;;;;;;1.50;1.40;;;23.30;99.90;22.90;101502.00;;;;5059415;27;20195;-68
2022/05/16 10:59:07;;;;;;;1.58;1.48;;;23.40;99.90;23.00;101515.00;;;;5112791;28;20179;-69
2022/05/16 11:02:10;;;;;;;0.80;0.80;;;23.30;99.90;22.80;101494.00;;;;5129675;28;20183;-68
2022/05/16 11:05:13;;;;;;;5.80;3.03;;;23.00;99.90;22.20;101494.00;;;;5129737;28;20268;-68
2022/05/16 11:08:08;;;;;;;2.03;1.65;;;22.70;99.90;22.60;101529.00;;;;5096499;28;20175;-70
2022/05/16 11:10:59;;;;;;;3.25;2.45;;;23.00;99.90;23.00;101496.00;;;;5130027;28;20176;-69
2022/05/16 11:14:06;;;;;;;3.13;2.78;;;22.90;99.90;21.50;101509.00;;;;5129760;28;20176;-69
2022/05/16 11:16:35;;;;;;;1.08;1.08;;;22.20;99.90;22.30;101513.00;;;;5090248;27;20674;-69
2022/05/16 11:19:29;;;;;;;0.85;0.65;;;22.30;99.90;22.90;101534.00;;;;5129500;28;20183;-69
2022/05/16 11:22:03;;;;;;;2.95;1.98;;;22.90;99.90;22.50;101544.00;;;;5130985;27;20160;-69
2022/05/16 11:25:07;;;;;;;4.18;2.95;;;22.80;99.90;22.10;101519.00;;;;5130664;27;20197;-69
2022/05/16 11:28:11;;;;;;;2.50;2.13;;;22.30;99.90;23.10;101539.00;;;;5129450;28;20168;-70
2022/05/16 11:30:53;;;;;;;2.45;1.58;;;23.00;99.90;22.30;101546.00;;;;5129371;28;20219;-69
2022/05/16 11:33:46;;;;;;;0.60;0.60;;;22.90;99.90;23.30;101565.00;;;;5129001;28;20201;-68
2022/05/16 11:36:17;;;;;;;7.05;2.55;;;23.30;99.90;24.30;101595.00;;;;5130522;28;20190;-68
2022/05/16 11:39:16;;;;;;;3.63;2.03;;;24.30;99.90;24.50;101589.00;;;;5130717;27;20200;-69
2022/05/16 11:42:28;;;;;;;0.43;0.43;;;24.10;99.90;26.20;101601.00;;;;5129494;28;20171;-69
2022/05/16 11:45:11;;;;;;;0.10;0.10;;;25.60;99.90;24.40;101569.00;;;;5116568;28;20176;-69
2022/05/16 11:48:17;;;;;;;1.25;1.00;;;24.60;99.90;23.70;101601.00;;;;5115321;28;20269;-69
2022/05/16 11:51:10;;;;;;;2.20;1.45;;;24.20;99.90;23.30;101594.00;;;;5084731;27;20269;-68